Time;durP1;ratioP1;P1;durP2;ratioP2;P2;SDS_P1;SDS_P2;PMS_P1;PMS_P2;Temp;Humidity;BMP_temperature;BMP_pressure;BME280_temperature;BME280_humidity;BME280_pressure;Samples;Min_cycle;Max_cycle;Signal;HPM_P1;HPM_P2
2022/02/08 00:00:49;;;;;;;3.13;2.00;;;16.00;56.40;;;;;;5127654;28;20495;-87
2022/02/08 00:03:18;;;;;;;4.43;1.77;;;16.00;56.40;;;;;;5130285;28;20420;-85
2022/02/08 00:05:54;;;;;;;3.30;1.70;;;16.00;56.40;;;;;;5134744;28;20447;-84
2022/02/08 00:08:22;;;;;;;3.60;1.53;;;16.00;56.40;;;;;;5129813;28;20451;-87
2022/02/08 00:10:50;;;;;;;6.67;2.10;;;16.00;56.40;;;;;;5134120;28;20436;-87
2022/02/08 00:13:18;;;;;;;3.57;2.20;;;16.00;56.40;;;;;;5132456;28;20501;-83
2022/02/08 00:15:47;;;;;;;3.57;1.87;;;16.00;56.40;;;;;;5128003;28;20486;-87
2022/02/08 00:18:15;;;;;;;3.37;2.07;;;16.00;56.30;;;;;;5134058;28;20426;-85
2022/02/08 00:20:43;;;;;;;3.23;1.77;;;16.00;56.40;;;;;;5129039;28;20449;-87
2022/02/08 00:23:11;;;;;;;2.70;2.00;;;16.00;56.30;;;;;;5133952;28;20427;-85
2022/02/08 00:25:39;;;;;;;8.30;1.90;;;16.00;56.30;;;;;;5127284;28;20465;-85
2022/02/08 00:28:07;;;;;;;6.93;2.13;;;16.00;56.40;;;;;;5131607;28;20412;-87
2022/02/08 00:30:35;;;;;;;2.63;1.67;;;16.00;56.20;;;;;;5132978;28;20448;-86
2022/02/08 00:33:04;;;;;;;7.17;2.23;;;16.00;56.20;;;;;;5133878;28;20424;-87
2022/02/08 00:35:32;;;;;;;3.73;2.10;;;16.10;56.20;;;;;;5134875;28;20464;-86
2022/02/08 00:38:00;;;;;;;4.70;1.83;;;16.00;56.10;;;;;;5126880;28;20448;-85
2022/02/08 00:40:28;;;;;;;5.40;2.03;;;16.00;56.10;;;;;;5132956;28;20441;-86
2022/02/08 00:42:57;;;;;;;4.03;1.90;;;16.00;56.30;;;;;;5131074;28;20469;-88
2022/02/08 00:45:34;;;;;;;4.17;1.93;;;16.00;56.20;;;;;;5131942;28;20459;-86
2022/02/08 00:48:15;;;;;;;4.17;1.67;;;16.00;56.10;;;;;;5129965;28;20447;-85
2022/02/08 00:50:49;;;;;;;4.00;2.10;;;16.00;56.30;;;;;;5131021;28;20420;-85
2022/02/08 00:53:17;;;;;;;4.60;1.77;;;16.00;56.20;;;;;;5138241;28;20412;-86
2022/02/08 00:55:45;;;;;;;5.87;1.77;;;16.00;56.20;;;;;;5138684;28;20439;-87
2022/02/08 00:58:13;;;;;;;4.70;2.10;;;16.00;56.00;;;;;;5138042;28;20443;-87
2022/02/08 01:00:41;;;;;;;2.23;1.70;;;16.00;56.10;;;;;;5135502;28;20442;-87
2022/02/08 01:03:10;;;;;;;6.33;1.97;;;16.00;56.20;;;;;;5138094;28;20419;-85
2022/02/08 01:05:43;;;;;;;2.57;1.80;;;16.00;56.10;;;;;;5135663;28;20459;-86
2022/02/08 01:08:11;;;;;;;5.07;2.57;;;16.00;56.10;;;;;;5137943;28;20440;-87
2022/02/08 01:10:40;;;;;;;2.40;1.73;;;16.00;56.10;;;;;;5138700;28;20438;-88
2022/02/08 01:13:09;;;;;;;2.90;1.70;;;16.00;56.20;;;;;;5137443;28;20431;-87
2022/02/08 01:15:37;;;;;;;3.10;1.83;;;16.00;56.20;;;;;;5136502;28;20444;-87
2022/02/08 01:18:05;;;;;;;3.63;2.00;;;16.00;56.20;;;;;;5128060;28;20464;-85
2022/02/08 01:20:37;;;;;;;4.70;1.90;;;16.00;56.30;;;;;;5115022;28;20448;-85
2022/02/08 01:23:07;;;;;;;4.60;2.50;;;16.00;56.80;;;;;;5116128;28;20475;-84
2022/02/08 01:25:40;;;;;;;3.20;2.00;;;16.00;56.20;;;;;;5114112;28;20487;-84
2022/02/08 01:28:17;;;;;;;6.13;2.27;;;16.00;56.10;;;;;;5116558;28;20436;-84
2022/02/08 01:30:57;;;;;;;6.67;2.50;;;16.10;56.20;;;;;;5116794;28;20424;-84
2022/02/08 01:36:39;;;;;;;6.97;2.10;;;16.10;56.20;;;;;;5120003;27;20466;-83
2022/02/08 01:39:24;;;;;;;2.97;1.60;;;16.10;56.20;;;;;;5115978;28;20469;-84
2022/02/08 01:44:43;;;;;;;5.63;2.30;;;16.00;56.30;;;;;;5116313;28;20452;-84
2022/02/08 01:47:25;;;;;;;6.40;2.00;;;16.00;56.30;;;;;;5119006;28;20435;-84
2022/02/08 01:50:10;;;;;;;2.90;2.03;;;16.00;56.30;;;;;;5116327;28;20439;-84
2022/02/08 01:52:41;;;;;;;3.07;1.90;;;16.00;56.30;;;;;;5117669;28;20463;-84
2022/02/08 01:55:10;;;;;;;5.00;2.50;;;16.00;56.30;;;;;;5118050;28;20491;-84
2022/02/08 01:57:38;;;;;;;4.83;2.20;;;16.00;56.30;;;;;;5119026;28;20525;-84
2022/02/08 02:00:08;;;;;;;3.97;2.50;;;16.00;56.30;;;;;;5119942;28;20444;-84
2022/02/08 02:02:36;;;;;;;4.43;2.20;;;16.00;56.30;;;;;;5117024;28;20440;-84
2022/02/08 02:05:04;;;;;;;5.77;2.30;;;16.10;56.30;;;;;;5121117;28;20467;-85
2022/02/08 02:07:33;;;;;;;3.33;2.30;;;16.10;56.40;;;;;;5121517;28;20436;-84
2022/02/08 02:10:04;;;;;;;5.13;2.30;;;16.10;56.40;;;;;;5121543;28;20548;-84
2022/02/08 02:12:36;;;;;;;3.83;2.30;;;16.10;56.20;;;;;;5116079;28;20472;-84
2022/02/08 02:15:06;;;;;;;5.33;2.53;;;16.10;56.30;;;;;;5122244;27;20456;-85
2022/02/08 02:17:34;;;;;;;2.70;2.10;;;16.10;56.20;;;;;;5119442;28;20498;-85
2022/02/08 02:20:02;;;;;;;2.23;1.77;;;16.10;56.20;;;;;;5119029;28;20479;-86
2022/02/08 02:22:30;;;;;;;3.50;2.20;;;16.10;56.20;;;;;;5123870;28;20482;-84
2022/02/08 02:24:59;;;;;;;6.73;2.30;;;16.10;56.10;;;;;;5123439;28;20474;-85
2022/02/08 02:27:27;;;;;;;5.13;2.53;;;16.10;56.30;;;;;;5123841;28;20439;-84
2022/02/08 02:29:55;;;;;;;4.57;2.33;;;16.10;56.20;;;;;;5121367;28;20472;-84
2022/02/08 02:32:23;;;;;;;5.20;2.50;;;16.10;56.40;;;;;;5124260;28;20443;-85
2022/02/08 02:34:51;;;;;;;5.00;2.80;;;16.10;56.30;;;;;;5125297;28;20463;-84
2022/02/08 02:37:19;;;;;;;4.07;2.27;;;16.10;56.20;;;;;;5124453;28;20501;-84
2022/02/08 02:39:47;;;;;;;7.70;3.20;;;16.10;56.10;;;;;;5125053;28;20464;-84
2022/02/08 02:42:18;;;;;;;3.67;2.17;;;16.10;56.10;;;;;;5125080;28;20486;-84
2022/02/08 02:44:46;;;;;;;4.80;2.77;;;16.10;56.20;;;;;;5123862;28;20531;-84
2022/02/08 02:47:14;;;;;;;3.50;2.33;;;16.10;56.30;;;;;;5125403;28;20440;-84
2022/02/08 02:49:42;;;;;;;6.37;2.60;;;16.10;56.20;;;;;;5119540;28;20440;-84
2022/02/08 02:52:10;;;;;;;6.93;2.87;;;16.20;56.20;;;;;;5125571;28;20444;-84
2022/02/08 02:54:38;;;;;;;5.33;2.80;;;16.10;56.20;;;;;;5126481;28;20463;-85
2022/02/08 02:57:06;;;;;;;5.40;3.43;;;16.10;56.10;;;;;;5126672;28;20444;-86
2022/02/08 02:59:37;;;;;;;4.70;2.30;;;16.10;56.10;;;;;;5126901;28;20463;-84
2022/02/08 03:02:31;;;;;;;6.83;3.03;;;16.10;56.10;;;;;;5126908;28;20448;-84
2022/02/08 03:05:08;;;;;;;5.70;2.63;;;16.10;56.10;;;;;;5107017;28;20460;-84
2022/02/08 03:18:41;;;;;;;5.57;2.23;;;16.10;56.40;;;;;;5127554;28;20460;-84
2022/02/08 03:21:09;;;;;;;4.30;2.87;;;16.10;56.40;;;;;;5113795;28;20451;-85
2022/02/08 03:23:37;;;;;;;6.17;3.30;;;16.10;56.40;;;;;;5119989;28;20444;-84
2022/02/08 03:26:06;;;;;;;7.47;2.80;;;16.10;56.40;;;;;;5124723;28;20452;-84
2022/02/08 03:28:34;;;;;;;5.60;3.30;;;16.10;56.50;;;;;;5127247;28;20439;-85
2022/02/08 03:31:04;;;;;;;4.33;2.50;;;16.10;56.40;;;;;;5126571;28;20462;-85
2022/02/08 03:33:32;;;;;;;5.90;2.67;;;16.10;56.30;;;;;;5125014;28;21012;-85
2022/02/08 03:36:00;;;;;;;5.37;3.30;;;16.10;56.20;;;;;;5128131;28;20444;-85
2022/02/08 03:38:33;;;;;;;7.57;2.63;;;16.10;56.30;;;;;;5126702;28;20471;-86
2022/02/08 03:41:03;;;;;;;4.47;2.60;;;16.10;56.50;;;;;;5128595;28;20512;-85
2022/02/08 03:43:32;;;;;;;6.33;2.63;;;16.10;56.40;;;;;;5128480;28;20436;-84
2022/02/08 03:46:05;;;;;;;6.23;2.70;;;16.10;56.40;;;;;;5127940;28;20425;-86
2022/02/08 03:48:35;;;;;;;6.73;3.30;;;16.10;56.30;;;;;;5127835;28;20458;-84
2022/02/08 03:51:11;;;;;;;4.03;2.60;;;16.20;56.30;;;;;;5126951;28;20467;-87
2022/02/08 03:53:43;;;;;;;4.50;2.70;;;16.10;56.40;;;;;;5126578;28;20470;-87
2022/02/08 03:56:11;;;;;;;3.90;2.50;;;16.20;56.50;;;;;;5123098;28;20473;-85
2022/02/08 03:58:39;;;;;;;3.67;2.60;;;16.20;56.30;;;;;;5126743;28;20518;-85
2022/02/08 04:04:21;;;;;;;5.37;2.50;;;16.20;56.20;;;;;;5122920;28;20456;-85
2022/02/08 04:06:52;;;;;;;4.93;2.60;;;16.20;56.40;;;;;;5125933;28;20439;-84
2022/02/08 04:09:20;;;;;;;5.03;2.70;;;16.20;56.40;;;;;;5125934;28;20424;-84
2022/02/08 04:11:56;;;;;;;4.73;2.73;;;16.20;56.40;;;;;;5122029;28;20463;-87
2022/02/08 04:14:32;;;;;;;3.93;3.10;;;16.20;56.30;;;;;;5122953;28;20455;-84
2022/02/08 04:17:10;;;;;;;4.33;3.00;;;16.20;56.30;;;;;;5126725;28;20473;-85
2022/02/08 04:19:49;;;;;;;4.60;2.77;;;16.20;56.40;;;;;;5127719;28;20489;-85
2022/02/08 04:33:42;;;;;;;4.87;3.37;;;16.20;56.40;;;;;;5132828;28;20439;-85
2022/02/08 04:36:25;;;;;;;4.43;3.57;;;16.20;56.40;;;;;;5132020;28;20459;-86
2022/02/08 04:38:58;;;;;;;4.23;3.10;;;16.20;56.40;;;;;;5132660;28;20524;-85
2022/02/08 04:41:31;;;;;;;4.53;2.97;;;16.20;56.30;;;;;;5133069;28;20444;-84
2022/02/08 04:44:13;;;;;;;7.70;3.13;;;16.30;56.50;;;;;;5132401;28;20460;-84
2022/02/08 04:46:47;;;;;;;7.73;3.10;;;16.30;56.30;;;;;;5130068;28;20451;-85
2022/02/08 04:49:18;;;;;;;5.07;3.30;;;16.30;56.30;;;;;;5132893;28;20432;-85
2022/02/08 04:51:50;;;;;;;4.20;3.27;;;16.30;56.50;;;;;;5133293;28;20447;-86
2022/02/08 04:54:24;;;;;;;4.17;3.20;;;16.30;56.50;;;;;;5132254;28;20448;-84
2022/02/08 04:57:04;;;;;;;6.40;3.47;;;16.30;56.30;;;;;;5133227;28;20451;-85
2022/02/08 05:00:00;;;;;;;5.27;3.67;;;16.40;56.40;;;;;;5133721;28;20456;-84
2022/02/08 05:26:37;;;;;;;5.83;3.60;;;16.40;56.20;;;;;;5134784;28;20434;-85
2022/02/08 05:28:32;;;;;;;6.03;3.90;;;16.50;56.30;;;;;;5114693;28;20485;-85
2022/02/08 05:36:46;;;;;;;5.40;3.80;;;16.50;56.30;;;;;;5134338;28;20455;-88
2022/02/08 05:42:08;;;;;;;6.20;3.50;;;16.50;56.20;;;;;;5114775;28;20459;-87
2022/02/08 05:44:40;;;;;;;6.90;4.17;;;16.50;56.20;;;;;;5113913;28;20471;-85
2022/02/08 05:47:09;;;;;;;6.23;4.07;;;16.50;56.20;;;;;;5115937;28;20444;-85
2022/02/08 05:49:43;;;;;;;6.30;3.90;;;16.50;56.10;;;;;;5115105;28;20425;-87
2022/02/08 05:52:33;;;;;;;6.37;3.73;;;16.60;56.30;;;;;;5115472;28;20517;-86
2022/02/08 05:55:03;;;;;;;11.73;4.20;;;16.60;56.00;;;;;;5132590;28;20471;-86
2022/02/08 05:57:31;;;;;;;6.37;3.90;;;16.60;56.10;;;;;;5136195;28;20440;-89
2022/02/08 05:59:59;;;;;;;9.17;4.20;;;16.60;56.10;;;;;;5135517;28;20489;-85
2022/02/08 06:02:27;;;;;;;6.50;4.13;;;16.60;56.20;;;;;;5136358;28;20424;-88
2022/02/08 06:04:55;;;;;;;10.40;4.97;;;16.60;56.00;;;;;;5136156;28;20460;-84
2022/02/08 06:07:24;;;;;;;8.17;3.90;;;16.70;56.20;;;;;;5136051;28;20485;-87
2022/02/08 06:09:55;;;;;;;7.20;3.97;;;16.70;56.10;;;;;;5135379;28;20413;-85
2022/02/08 06:12:25;;;;;;;6.80;4.10;;;16.70;56.10;;;;;;5132189;28;20447;-86
2022/02/08 06:14:58;;;;;;;12.07;4.10;;;16.70;56.00;;;;;;5127661;28;20464;-86
2022/02/08 06:17:26;;;;;;;6.90;3.60;;;16.70;55.90;;;;;;5135490;28;20432;-86
2022/02/08 06:19:56;;;;;;;4.50;3.40;;;16.70;55.90;;;;;;5136263;28;20463;-85
2022/02/08 06:22:24;;;;;;;6.13;3.47;;;16.70;55.90;;;;;;5136196;28;20501;-88
2022/02/08 06:24:52;;;;;;;6.87;3.77;;;16.80;56.00;;;;;;5135266;28;20440;-85
2022/02/08 06:27:28;;;;;;;6.07;4.03;;;16.80;56.00;;;;;;5135458;28;20457;-86
2022/02/08 06:29:57;;;;;;;6.47;3.90;;;16.80;56.10;;;;;;5132998;28;20448;-84
2022/02/08 06:32:26;;;;;;;6.50;3.57;;;16.80;56.00;;;;;;5135274;28;20440;-85
2022/02/08 06:34:57;;;;;;;7.73;4.00;;;16.80;55.90;;;;;;5135636;28;20463;-87
2022/02/08 06:37:27;;;;;;;4.13;3.60;;;16.80;56.00;;;;;;5134895;28;20809;-85
2022/02/08 06:39:56;;;;;;;5.93;4.17;;;16.80;56.00;;;;;;5135891;28;20464;-85
2022/02/08 06:42:24;;;;;;;6.43;3.60;;;16.80;56.00;;;;;;5135241;28;20444;-88
2022/02/08 06:44:52;;;;;;;4.93;4.10;;;16.80;55.90;;;;;;5134709;28;20475;-86
2022/02/08 06:47:22;;;;;;;4.17;3.57;;;16.80;56.00;;;;;;5131507;28;20440;-86
2022/02/08 06:49:50;;;;;;;9.70;3.57;;;16.80;56.70;;;;;;5133928;28;20419;-85
2022/02/08 06:52:18;;;;;;;5.27;3.27;;;16.90;56.10;;;;;;5135433;28;20431;-86
2022/02/08 06:54:48;;;;;;;7.20;3.50;;;16.90;56.10;;;;;;5135390;28;20460;-83
2022/02/08 06:57:16;;;;;;;3.67;3.37;;;16.90;56.10;;;;;;5136022;28;20436;-83
2022/02/08 06:59:50;;;;;;;5.50;3.17;;;16.90;56.00;;;;;;5135896;28;20460;-86
2022/02/08 07:02:18;;;;;;;8.17;3.07;;;16.90;56.00;;;;;;5133247;28;20443;-84
2022/02/08 07:04:47;;;;;;;6.87;3.83;;;16.90;56.00;;;;;;5132615;28;20467;-85
2022/02/08 07:07:16;;;;;;;7.17;3.50;;;16.90;55.90;;;;;;5136235;28;20465;-88
2022/02/08 07:09:45;;;;;;;6.80;3.20;;;17.00;56.00;;;;;;5136109;28;20457;-87
2022/02/08 07:12:13;;;;;;;10.50;3.63;;;17.00;56.00;;;;;;5135809;28;20461;-86
2022/02/08 07:14:42;;;;;;;6.30;3.10;;;17.00;56.10;;;;;;5135520;28;20464;-87
2022/02/08 07:17:10;;;;;;;4.83;3.03;;;17.00;56.10;;;;;;5135582;28;20442;-85
2022/02/08 07:19:38;;;;;;;8.13;3.10;;;17.00;56.10;;;;;;5136158;28;20456;-86
2022/02/08 07:22:08;;;;;;;6.40;3.40;;;17.00;56.10;;;;;;5131135;28;20463;-86
2022/02/08 07:24:36;;;;;;;6.13;3.40;;;17.00;56.10;;;;;;5128128;28;20470;-87
2022/02/08 07:27:04;;;;;;;6.00;3.13;;;17.00;56.00;;;;;;5135962;28;20470;-87
2022/02/08 07:29:37;;;;;;;4.73;3.00;;;17.00;56.10;;;;;;5135487;28;20424;-88
2022/02/08 07:32:07;;;;;;;6.27;3.43;;;17.00;56.10;;;;;;5135757;28;20444;-89
2022/02/08 07:34:41;;;;;;;5.80;3.07;;;17.10;56.00;;;;;;5135591;28;20452;-86
2022/02/08 07:37:17;;;;;;;4.87;3.30;;;17.10;55.90;;;;;;5135728;28;20469;-87
2022/02/08 07:39:48;;;;;;;4.77;3.13;;;17.10;56.00;;;;;;5128791;28;20509;-89
2022/02/08 07:42:16;;;;;;;6.10;3.10;;;17.10;56.00;;;;;;5128295;28;20431;-85
2022/02/08 07:44:44;;;;;;;8.60;3.10;;;17.10;56.00;;;;;;5135331;28;20486;-87
2022/02/08 07:47:12;;;;;;;4.30;2.73;;;17.10;56.00;;;;;;5135583;28;20443;-88
2022/02/08 07:49:41;;;;;;;9.77;2.93;;;17.20;56.10;;;;;;5135703;28;20450;-87
2022/02/08 07:52:10;;;;;;;8.30;3.30;;;17.10;56.00;;;;;;5135801;28;20492;-88
2022/02/08 07:54:39;;;;;;;6.10;3.10;;;17.20;56.00;;;;;;5134703;28;20490;-85
2022/02/08 07:57:07;;;;;;;5.43;2.70;;;17.20;56.10;;;;;;5135200;28;20444;-87
2022/02/08 07:59:35;;;;;;;6.10;3.03;;;17.20;56.00;;;;;;5135657;28;20440;-86
2022/02/08 08:02:04;;;;;;;4.10;2.83;;;17.20;55.90;;;;;;5135434;28;20431;-89
2022/02/08 08:04:31;;;;;;;4.63;2.60;;;17.20;55.90;;;;;;5135635;28;20500;-87
2022/02/08 08:07:00;;;;;;;9.77;2.90;;;17.20;56.00;;;;;;5136296;28;20421;-87
2022/02/08 08:09:30;;;;;;;4.00;2.90;;;17.20;55.90;;;;;;5136021;28;20450;-86
2022/02/08 08:11:58;;;;;;;4.10;2.50;;;17.30;56.00;;;;;;5127455;28;20441;-84
2022/02/08 08:14:27;;;;;;;5.13;2.60;;;17.30;56.00;;;;;;5119371;28;20451;-84
2022/02/08 08:17:00;;;;;;;6.93;3.00;;;17.30;55.90;;;;;;5123130;28;20564;-85
2022/02/08 08:19:37;;;;;;;4.80;2.60;;;17.30;56.10;;;;;;5123298;28;20432;-85
2022/02/08 08:22:06;;;;;;;4.27;2.40;;;17.30;56.00;;;;;;5125873;28;20463;-85
2022/02/08 08:24:36;;;;;;;5.30;2.90;;;17.30;55.90;;;;;;5115993;28;20460;-84
2022/02/08 08:27:04;;;;;;;5.90;2.57;;;17.30;56.50;;;;;;5125358;28;20447;-86
2022/02/08 08:29:32;;;;;;;4.60;2.43;;;17.40;56.10;;;;;;5125425;28;20503;-86
2022/02/08 08:32:00;;;;;;;5.27;2.90;;;17.40;56.00;;;;;;5123350;28;20436;-85
2022/02/08 08:34:28;;;;;;;9.80;2.90;;;17.40;56.00;;;;;;5117321;28;20532;-85
2022/02/08 08:36:56;;;;;;;4.83;2.70;;;17.40;56.00;;;;;;5122089;28;20448;-86
2022/02/08 08:39:30;;;;;;;5.07;2.73;;;17.40;55.90;;;;;;5121178;28;20436;-85
2022/02/08 08:42:16;;;;;;;5.60;2.77;;;17.40;55.90;;;;;;5120744;28;20474;-86
2022/02/08 08:45:07;;;;;;;3.80;2.17;;;17.40;56.00;;;;;;5123339;28;20463;-85
2022/02/08 08:50:34;;;;;;;4.90;2.70;;;17.50;56.00;;;;;;5086996;28;20403;-84
2022/02/08 08:53:06;;;;;;;4.40;2.50;;;17.50;55.90;;;;;;5125960;28;20443;-84
2022/02/08 08:55:34;;;;;;;5.00;2.50;;;17.50;55.90;;;;;;5127741;28;20451;-84
2022/02/08 08:58:03;;;;;;;5.43;2.67;;;17.60;55.90;;;;;;5126350;28;20447;-84
2022/02/08 09:00:32;;;;;;;5.03;2.33;;;17.60;55.90;;;;;;5126102;28;20467;-83
2022/02/08 09:03:00;;;;;;;4.07;2.23;;;17.60;55.80;;;;;;5126241;28;20439;-84
2022/02/08 09:05:28;;;;;;;7.60;3.03;;;17.70;55.80;;;;;;5118704;28;20483;-84
2022/02/08 09:07:56;;;;;;;6.10;2.50;;;17.60;55.70;;;;;;5117931;28;20455;-84
2022/02/08 09:10:31;;;;;;;8.80;2.00;;;17.60;55.80;;;;;;5120245;28;20444;-84
2022/02/08 09:13:10;;;;;;;5.63;2.63;;;17.70;55.90;;;;;;5125212;28;20465;-84
2022/02/08 09:15:54;;;;;;;7.07;2.40;;;17.60;55.80;;;;;;5115854;28;20467;-84
2022/02/08 09:18:50;;;;;;;3.37;1.90;;;17.60;56.00;;;;;;5124452;28;20442;-84
2022/02/08 09:29:48;;;;;;;4.40;2.00;;;17.60;56.00;;;;;;5105543;28;20443;-85
2022/02/08 09:32:20;;;;;;;3.60;2.27;;;17.60;56.00;;;;;;5107187;28;20482;-86
2022/02/08 09:34:48;;;;;;;9.27;3.13;;;17.60;56.00;;;;;;5107631;28;20452;-85
2022/02/08 09:37:18;;;;;;;10.93;2.40;;;17.60;56.10;;;;;;5106771;28;20989;-85
2022/02/08 09:39:47;;;;;;;4.20;2.00;;;17.70;56.00;;;;;;5107527;28;20436;-85
2022/02/08 09:42:15;;;;;;;2.73;1.90;;;17.70;56.20;;;;;;5122521;28;20463;-84
2022/02/08 09:44:43;;;;;;;8.13;2.17;;;17.70;56.10;;;;;;5126554;28;20463;-84
2022/02/08 09:47:17;;;;;;;4.73;2.37;;;17.70;56.00;;;;;;5127343;28;20444;-86
2022/02/08 09:49:53;;;;;;;4.50;2.27;;;17.80;56.20;;;;;;5125935;28;20500;-83
2022/02/08 09:52:25;;;;;;;3.80;2.27;;;17.70;56.00;;;;;;5125281;28;20480;-84
2022/02/08 09:54:53;;;;;;;4.37;1.90;;;17.80;56.10;;;;;;5126183;28;20584;-84
2022/02/08 09:57:21;;;;;;;5.60;2.27;;;17.80;56.10;;;;;;5125284;28;20531;-84
2022/02/08 09:59:49;;;;;;;6.00;2.27;;;17.70;56.10;;;;;;5126429;28;20456;-83
2022/02/08 10:02:18;;;;;;;3.97;2.40;;;17.80;56.20;;;;;;5126549;28;20468;-83
2022/02/08 10:04:57;;;;;;;5.17;2.23;;;17.70;56.00;;;;;;5126838;28;20484;-83
2022/02/08 10:07:27;;;;;;;5.30;2.20;;;17.70;56.00;;;;;;5127069;28;20493;-84
2022/02/08 10:09:55;;;;;;;4.33;1.90;;;17.70;56.10;;;;;;5126972;28;20448;-83
2022/02/08 10:12:29;;;;;;;4.20;2.13;;;17.70;56.10;;;;;;5128347;28;20439;-82
2022/02/08 10:23:10;;;;;;;6.80;2.27;;;17.70;56.30;;;;;;5128131;28;20448;-84
2022/02/08 10:25:48;;;;;;;2.87;1.90;;;17.70;56.20;;;;;;5133587;28;20463;-83
2022/02/08 10:28:28;;;;;;;3.67;1.90;;;17.70;56.40;;;;;;5134847;28;20504;-85
2022/02/08 10:31:23;;;;;;;4.40;1.93;;;17.70;56.30;;;;;;5133351;28;20457;-86
2022/02/08 10:39:27;;;;;;;8.43;2.20;;;17.70;56.50;;;;;;5130093;28;20428;-83
2022/02/08 10:41:55;;;;;;;3.07;1.97;;;17.70;56.40;;;;;;5132167;28;20471;-85
2022/02/08 10:44:23;;;;;;;3.40;1.83;;;17.70;56.40;;;;;;5130141;28;20467;-84
2022/02/08 10:46:59;;;;;;;6.93;2.50;;;17.80;56.50;;;;;;5131840;28;20440;-84
2022/02/08 10:49:32;;;;;;;6.70;1.90;;;17.80;56.50;;;;;;5130399;28;20436;-84
2022/02/08 10:52:03;;;;;;;9.23;2.13;;;17.80;56.50;;;;;;5130239;28;20444;-86
2022/02/08 10:54:36;;;;;;;5.93;2.17;;;17.80;56.40;;;;;;5131131;28;20452;-84
2022/02/08 10:57:12;;;;;;;3.23;2.10;;;17.80;56.40;;;;;;5129363;28;20423;-84
2022/02/08 10:59:47;;;;;;;5.20;1.83;;;17.80;56.30;;;;;;5131203;28;20443;-85
2022/02/08 11:02:21;;;;;;;5.40;2.17;;;17.90;56.40;;;;;;5130289;28;20483;-87
2022/02/08 11:04:54;;;;;;;4.40;2.37;;;17.80;56.40;;;;;;5127474;28;20521;-84
2022/02/08 11:07:45;;;;;;;4.90;2.20;;;17.90;56.50;;;;;;5136488;27;20456;-84
2022/02/08 11:10:27;;;;;;;2.93;2.07;;;17.90;56.40;;;;;;5138681;27;20436;-84
2022/02/08 11:13:02;;;;;;;3.67;2.00;;;17.90;56.40;;;;;;5139417;27;20427;-85
2022/02/08 11:15:40;;;;;;;3.23;1.90;;;17.90;56.40;;;;;;5139804;27;20447;-83
2022/02/08 11:21:05;;;;;;;3.10;2.00;;;17.90;56.40;;;;;;5138058;27;20444;-86
2022/02/08 11:23:46;;;;;;;8.53;2.07;;;17.90;56.40;;;;;;5130934;27;20471;-86
2022/02/08 11:26:26;;;;;;;4.47;1.90;;;18.00;56.40;;;;;;5123288;28;20440;-84
2022/02/08 11:28:54;;;;;;;2.63;1.73;;;17.90;56.30;;;;;;5129545;28;20439;-85
2022/02/08 11:31:27;;;;;;;6.50;2.13;;;17.90;56.20;;;;;;5130570;28;20473;-86
2022/02/08 11:34:10;;;;;;;4.17;2.20;;;18.00;56.30;;;;;;5130435;28;20448;-84
2022/02/08 11:45:37;;;;;;;2.63;1.90;;;18.00;56.50;;;;;;5120653;28;20482;-84
2022/02/08 11:48:18;;;;;;;8.87;2.10;;;18.00;56.50;;;;;;5127876;28;20460;-85
2022/02/08 11:51:21;;;;;;;1.83;1.50;;;18.00;56.40;;;;;;5126057;28;20424;-85
2022/02/08 11:54:01;;;;;;;2.07;1.60;;;18.00;56.40;;;;;;5125520;28;20435;-85
2022/02/08 11:56:52;;;;;;;9.30;2.70;;;18.00;56.90;;;;;;5125372;28;20444;-83
2022/02/08 11:59:53;;;;;;;4.47;2.30;;;18.00;56.30;;;;;;5127264;28;20547;-85
2022/02/08 12:02:50;;;;;;;7.67;2.10;;;18.00;56.30;;;;;;5119874;28;20466;-82
2022/02/08 12:05:30;;;;;;;9.70;2.10;;;18.00;56.20;;;;;;5125216;28;20460;-81
2022/02/08 12:08:02;;;;;;;4.87;1.87;;;18.00;56.20;;;;;;5121483;28;20451;-83
2022/02/08 12:10:37;;;;;;;5.90;2.13;;;18.00;56.40;;;;;;5126776;28;20440;-86
2022/02/08 12:13:26;;;;;;;9.20;2.10;;;18.10;56.50;;;;;;5130863;28;20453;-85
2022/02/08 12:33:12;;;;;;;8.90;2.27;;;18.00;56.50;;;;;;5127639;28;20466;-84
2022/02/08 12:35:56;;;;;;;3.83;1.97;;;18.00;56.50;;;;;;5123895;28;20493;-84
2022/02/08 12:55:45;;;;;;;4.77;2.20;;;18.20;56.70;;;;;;5122691;28;20455;-86
2022/02/08 12:58:32;;;;;;;6.97;2.03;;;18.20;56.80;;;;;;5133215;28;20424;-85
2022/02/08 13:01:26;;;;;;;4.70;2.30;;;18.20;57.40;;;;;;5137406;28;20447;-86
2022/02/08 13:04:11;;;;;;;5.57;2.17;;;18.20;56.70;;;;;;5136378;28;20514;-85
2022/02/08 13:16:00;;;;;;;4.80;1.87;;;18.30;56.70;;;;;;5124225;28;20468;-84
2022/02/08 13:32:43;;;;;;;9.80;2.57;;;18.30;56.70;;;;;;5128889;28;20470;-85
2022/02/08 14:08:39;;;;;;;6.00;2.33;;;18.40;57.10;;;;;;5125953;28;20463;-85
2022/02/08 14:14:12;;;;;;;6.73;1.97;;;18.40;57.00;;;;;;5074501;28;20506;-85
2022/02/08 14:17:01;;;;;;;5.37;2.00;;;18.40;57.10;;;;;;5133120;28;20436;-84
2022/02/08 14:19:36;;;;;;;5.80;2.30;;;18.40;57.20;;;;;;5128123;28;20448;-86
2022/02/08 14:22:17;;;;;;;3.33;1.77;;;18.40;57.10;;;;;;5132319;28;20431;-84
2022/02/08 14:30:46;;;;;;;4.70;1.90;;;18.40;57.20;;;;;;5131935;28;20436;-89
2022/02/08 14:33:35;;;;;;;5.20;1.90;;;18.40;57.10;;;;;;5132301;28;20435;-84
2022/02/08 14:36:29;;;;;;;4.00;2.03;;;18.40;57.10;;;;;;5133733;28;20479;-83
2022/02/08 15:07:38;;;;;;;3.37;2.23;;;18.40;57.50;;;;;;5119649;28;20554;-85
2022/02/08 15:10:02;;;;;;;7.73;2.03;;;18.40;57.60;;;;;;5121166;28;20443;-83
2022/02/08 15:12:34;;;;;;;4.83;2.20;;;18.40;57.50;;;;;;5120255;27;20476;-84
2022/02/08 15:15:10;;;;;;;3.30;2.00;;;18.40;57.60;;;;;;5116717;28;20472;-83
2022/02/08 15:17:42;;;;;;;2.83;1.90;;;18.40;57.50;;;;;;5120901;28;20439;-84
2022/02/08 15:20:12;;;;;;;2.77;1.90;;;18.40;57.60;;;;;;5128650;28;20568;-84
2022/02/08 15:22:49;;;;;;;4.70;2.33;;;18.30;57.50;;;;;;5122659;28;20432;-83
2022/02/08 15:25:17;;;;;;;3.87;1.77;;;18.30;57.60;;;;;;5112635;28;20463;-82
2022/02/08 15:27:46;;;;;;;3.87;2.10;;;18.40;57.60;;;;;;5114043;28;20424;-83
2022/02/08 15:30:14;;;;;;;3.10;2.00;;;18.40;57.60;;;;;;5110016;27;20553;-82
2022/02/08 15:32:46;;;;;;;6.10;2.50;;;18.40;57.70;;;;;;5112911;27;20448;-83
2022/02/08 15:35:14;;;;;;;3.60;2.20;;;18.40;57.70;;;;;;5114398;28;20513;-82
2022/02/08 15:37:42;;;;;;;5.00;2.00;;;18.40;57.70;;;;;;5127268;27;20474;-82
2022/02/08 15:40:13;;;;;;;2.03;1.63;;;18.30;57.60;;;;;;5135074;27;20521;-83
2022/02/08 15:42:41;;;;;;;7.70;2.20;;;18.30;57.60;;;;;;5125394;27;20465;-83
2022/02/08 15:45:19;;;;;;;4.30;2.40;;;18.30;57.70;;;;;;5112996;27;20567;-83
2022/02/08 15:47:49;;;;;;;2.80;1.87;;;18.30;57.70;;;;;;5110143;27;20528;-82
2022/02/08 15:50:22;;;;;;;1.90;1.60;;;18.30;57.70;;;;;;5112463;28;20522;-83
2022/02/08 15:53:25;;;;;;;6.20;2.00;;;18.40;57.70;;;;;;5108002;28;20466;-84
2022/02/08 15:56:08;;;;;;;2.50;1.63;;;18.40;57.70;;;;;;5111132;28;20494;-84
2022/02/08 16:01:40;;;;;;;6.27;2.10;;;18.40;57.80;;;;;;5114503;28;20538;-83
2022/02/08 16:07:01;;;;;;;2.80;1.83;;;18.30;57.90;;;;;;5108002;28;20458;-83
2022/02/08 16:09:35;;;;;;;3.00;1.90;;;18.30;57.90;;;;;;5113782;28;20459;-82
2022/02/08 16:12:23;;;;;;;6.07;2.50;;;18.30;57.90;;;;;;5115004;28;20462;-83
2022/02/08 16:17:57;;;;;;;5.27;1.80;;;18.30;58.00;;;;;;5111696;28;20514;-83
2022/02/08 16:20:45;;;;;;;2.60;1.40;;;18.30;57.80;;;;;;5096812;28;20519;-82
2022/02/08 16:26:09;;;;;;;3.17;1.80;;;18.30;58.00;;;;;;5058113;28;20493;-83
2022/02/08 16:28:55;;;;;;;2.43;2.00;;;18.30;58.00;;;;;;5106322;28;20470;-84
2022/02/08 16:31:41;;;;;;;3.80;2.30;;;18.30;57.90;;;;;;5121341;27;20432;-82
2022/02/08 16:54:06;;;;;;;5.63;2.17;;;18.20;58.20;;;;;;5119599;28;20436;-84
2022/02/08 16:56:53;;;;;;;4.93;2.60;;;18.20;58.20;;;;;;5117852;28;20451;-84
2022/02/08 16:59:26;;;;;;;7.70;2.07;;;18.20;58.30;;;;;;5110087;28;20467;-85
2022/02/08 17:01:56;;;;;;;3.20;1.90;;;18.20;58.20;;;;;;5118498;28;20481;-84
2022/02/08 17:04:24;;;;;;;2.00;1.60;;;18.20;58.10;;;;;;5117251;28;20524;-83
2022/02/08 17:06:54;;;;;;;3.60;1.70;;;18.20;58.80;;;;;;5118454;28;20520;-84
2022/02/08 17:09:35;;;;;;;2.17;1.97;;;18.20;58.20;;;;;;5120135;28;20473;-84
2022/02/08 17:12:11;;;;;;;3.53;2.03;;;18.20;58.20;;;;;;5117183;28;20452;-83
2022/02/08 17:14:50;;;;;;;3.23;1.90;;;18.20;58.40;;;;;;5117654;28;20443;-83
2022/02/08 17:17:49;;;;;;;2.77;1.97;;;18.20;58.30;;;;;;5119139;28;20445;-83
2022/02/08 17:34:37;;;;;;;3.93;2.33;;;18.10;58.40;;;;;;5078835;28;20469;-84
2022/02/08 17:45:49;;;;;;;4.70;2.10;;;18.20;58.60;;;;;;5120678;28;20522;-83
2022/02/08 17:48:17;;;;;;;2.97;1.83;;;18.10;58.50;;;;;;5115228;28;20470;-83
2022/02/08 17:50:47;;;;;;;7.00;2.27;;;18.10;58.60;;;;;;5099372;28;20432;-84
2022/02/08 17:53:15;;;;;;;4.87;2.67;;;18.10;58.50;;;;;;5100690;28;20421;-84
2022/02/08 17:55:43;;;;;;;3.87;2.30;;;18.10;58.60;;;;;;5100814;28;20441;-84
2022/02/08 17:58:15;;;;;;;2.90;1.73;;;18.10;58.60;;;;;;5101691;28;20424;-84